createdAt,value
2023-04-26T00:11:06.879Z,92757.81
2023-04-26T00:26:08.567Z,92679.78
2023-04-26T00:41:10.300Z,92429.22
2023-04-26T00:56:12.819Z,92756.75
2023-04-26T01:11:15.511Z,92503.75
2023-04-26T01:26:17.802Z,92552.91
2023-04-26T01:41:19.449Z,92684.44
2023-04-26T01:56:22.707Z,92793.47
2023-04-26T02:11:24.702Z,92621.81
2023-04-26T02:26:27.093Z,92689.03
2023-04-26T02:41:28.786Z,92551.94
2023-04-26T02:56:30.586Z,92532.91
2023-04-26T03:11:32.239Z,92662.22
2023-04-26T03:26:34.168Z,92634.56
2023-04-26T03:41:39.666Z,92718.53
2023-04-26T03:56:41.558Z,92636.13
2023-04-26T04:11:43.193Z,92734.09
2023-04-26T04:26:44.807Z,92669.66
2023-04-26T04:41:49.477Z,92606.47
2023-04-26T04:56:51.298Z,92716.50
2023-04-26T05:11:52.978Z,92695.72
2023-04-26T05:26:54.653Z,92768.53
2023-04-26T05:41:56.334Z,92727.53
2023-04-26T05:56:59.172Z,92733.88
2023-04-26T06:12:01.821Z,92784.81
2023-04-26T06:27:03.548Z,92726.00
2023-04-26T06:42:06.479Z,92800.81
2023-04-26T06:57:08.122Z,92792.56
2023-04-26T07:12:13.277Z,92797.50
2023-04-26T07:27:14.925Z,92789.19
2023-04-26T07:42:16.716Z,92771.63
2023-04-26T07:57:18.362Z,92780.75
2023-04-26T08:12:20.008Z,92793.38
2023-04-26T08:27:22.129Z,92819.31
2023-04-26T08:42:27.174Z,92749.50
2023-04-26T08:57:31.570Z,92813.50
2023-04-26T09:12:33.280Z,92813.75
2023-04-26T09:27:37.056Z,92839.56
2023-04-26T09:42:39.240Z,92731.78
2023-04-26T09:57:44.666Z,92802.56
2023-04-26T10:12:46.610Z,92788.78
2023-04-26T10:27:49.358Z,92687.34
2023-04-26T10:42:51.192Z,92781.00
2023-04-26T10:57:54.016Z,92772.00
2023-04-26T11:13:04.981Z,92778.91
2023-04-26T11:28:07.002Z,92746.97
2023-04-26T11:43:09.740Z,92811.72
2023-04-26T11:58:14.470Z,92798.66
2023-04-26T12:13:16.342Z,92720.31
2023-04-26T12:28:18.002Z,92798.06
2023-04-26T12:43:24.026Z,92727.94
2023-04-26T12:58:25.989Z,92789.38
2023-04-26T13:13:39.840Z,92779.81
2023-04-26T13:28:44.622Z,92840.03
2023-04-26T13:43:46.233Z,92774.19
2023-04-26T13:58:47.788Z,92859.84
2023-04-26T14:13:51.765Z,92838.38
2023-04-26T14:28:54.340Z,92875.44
2023-04-26T14:43:56.187Z,92922.16
2023-04-26T14:58:57.794Z,92876.91
2023-04-26T15:13:59.426Z,92967.81
2023-04-26T15:29:01.844Z,92894.53
2023-04-26T15:44:03.633Z,92973.47
2023-04-26T15:59:05.284Z,92995.16
2023-04-26T16:14:06.925Z,93035.94
2023-04-26T16:29:08.646Z,93024.59
2023-04-26T16:44:10.903Z,93022.38
2023-04-26T16:59:12.660Z,93043.75
2023-04-26T17:14:14.326Z,93075.41
2023-04-26T17:29:15.967Z,93139.94
2023-04-26T17:44:18.250Z,93123.09
2023-04-26T17:59:19.973Z,93086.34
2023-04-26T18:14:21.887Z,93124.31
2023-04-26T18:29:23.630Z,93082.75
2023-04-26T18:44:25.360Z,92956.75
2023-04-26T18:59:27.249Z,92948.94
2023-04-26T19:14:29.056Z,92978.28
2023-04-26T19:29:31.052Z,93216.28
2023-04-26T19:44:32.839Z,93104.22
2023-04-26T19:59:34.543Z,93041.56
2023-04-26T20:14:37.435Z,92989.00
2023-04-26T20:29:39.269Z,93318.31
2023-04-26T20:44:40.952Z,92978.59
2023-04-26T20:59:42.624Z,93077.34
2023-04-26T21:14:45.917Z,93165.25
2023-04-26T21:29:47.644Z,93056.25
2023-04-26T21:44:49.427Z,93196.91
2023-04-26T21:59:51.338Z,93354.59
2023-04-26T22:14:53.958Z,93414.78
2023-04-26T22:29:55.597Z,93149.31
2023-04-26T22:44:57.230Z,93204.22
2023-04-26T22:59:58.908Z,93158.56
2023-04-26T23:15:00.694Z,93360.47
2023-04-26T23:30:02.558Z,93111.66
2023-04-26T23:45:04.768Z,93215.53
